METAR Data
IDs: Format: Raw Decoded Include TAF

Data at: 0553 UTC 28 Sep 2022

METAR for:KIAH (Houston/Bush Intl, TX, US)
Text:KIAH 280453Z 05004KT 10SM CLR 21/10 A3014 RMK AO2 SLP205 T02060100
Temperature: 20.6°C ( 69°F)
Dewpoint: 10.0°C ( 50°F) [RH = 51%]
Pressure (altimeter):30.14 inches Hg (1020.7 mb) [Sea level pressure: 1020.5 mb]
Winds:from the NE (50 degrees) at 5 MPH (4 knots; 2.1 m/s)
Visibility:10 or more sm (16+ km)
Ceiling:at least 12,000 feet AGL
Clouds:sky clear below 12,000 feet AGL

METAR for:KHOU (Houston/Hobby Arpt, TX, US)
Text:KHOU 280453Z 06006KT 10SM CLR 24/09 A3012 RMK AO2 SLP205 T02390094
Temperature: 23.9°C ( 75°F)
Dewpoint: 9.4°C ( 49°F) [RH = 40%]
Pressure (altimeter):30.12 inches Hg (1020.1 mb) [Sea level pressure: 1020.5 mb]
Winds:from the ENE (60 degrees) at 7 MPH (6 knots; 3.1 m/s)
Visibility:10 or more sm (16+ km)
Ceiling:at least 12,000 feet AGL
Clouds:sky clear below 12,000 feet AGL

METAR for:KGLS (Galveston/Scholes In, TX, US)
Text:KGLS 280452Z AUTO 05012KT 10SM CLR 26/13 A3012 RMK AO2 SLP198 T02560128
Temperature: 25.6°C ( 78°F)
Dewpoint: 12.8°C ( 55°F) [RH = 45%]
Pressure (altimeter):30.12 inches Hg (1020.1 mb) [Sea level pressure: 1019.8 mb]
Winds:from the NE (50 degrees) at 14 MPH (12 knots; 6.2 m/s)
Visibility:10 or more sm (16+ km)
Ceiling:at least 12,000 feet AGL
Clouds:sky clear below 12,000 feet AGL
QC Flag:automated observation with no human augmentation

METAR for:KLVJ (Houston/Pearland Rgn, TX, US)
Text:KLVJ 280453Z AUTO 04006KT 10SM CLR 23/11 A3014 RMK AO2 SLP204 T02330111
Temperature: 23.3°C ( 74°F)
Dewpoint: 11.1°C ( 52°F) [RH = 46%]
Pressure (altimeter):30.14 inches Hg (1020.7 mb) [Sea level pressure: 1020.4 mb]
Winds:from the NE (40 degrees) at 7 MPH (6 knots; 3.1 m/s)
Visibility:10 or more sm (16+ km)
Ceiling:at least 12,000 feet AGL
Clouds:sky clear below 12,000 feet AGL
QC Flag:automated observation with no human augmentation

METAR for:KSGR (Houston/Sugar Land R, TX, US)
Text:KSGR 280453Z AUTO 02003KT 10SM CLR 18/13 A3013 RMK AO2 SLP203 T01780128
Temperature: 17.8°C ( 64°F)
Dewpoint: 12.8°C ( 55°F) [RH = 73%]
Pressure (altimeter):30.13 inches Hg (1020.4 mb) [Sea level pressure: 1020.3 mb]
Winds:from the NNE (20 degrees) at 3 MPH (3 knots; 1.5 m/s)
Visibility:10 or more sm (16+ km)
Ceiling:at least 12,000 feet AGL
Clouds:sky clear below 12,000 feet AGL
QC Flag:automated observation with no human augmentation

METAR for:KDWH (Houston/Hooks Mem, TX, US)
Text:KDWH 280453Z AUTO 06004KT 10SM CLR 21/09 A3014 RMK AO2 SLP205 T02110089
Temperature: 21.1°C ( 70°F)
Dewpoint: 8.9°C ( 48°F) [RH = 46%]
Pressure (altimeter):30.14 inches Hg (1020.7 mb) [Sea level pressure: 1020.5 mb]
Winds:from the ENE (60 degrees) at 5 MPH (4 knots; 2.1 m/s)
Visibility:10 or more sm (16+ km)
Ceiling:at least 12,000 feet AGL
Clouds:sky clear below 12,000 feet AGL
QC Flag:automated observation with no human augmentation

METAR for:KCLL (College Station/East, TX, US)
Text:KCLL 280453Z AUTO 07006KT 10SM CLR 23/07 A3015 RMK AO2 SLP205 T02330067
Temperature: 23.3°C ( 74°F)
Dewpoint: 6.7°C ( 44°F) [RH = 34%]
Pressure (altimeter):30.15 inches Hg (1021.1 mb) [Sea level pressure: 1020.5 mb]
Winds:from the ENE (70 degrees) at 7 MPH (6 knots; 3.1 m/s)
Visibility:10 or more sm (16+ km)
Ceiling:at least 12,000 feet AGL
Clouds:sky clear below 12,000 feet AGL
QC Flag:automated observation with no human augmentation

METAR for:KUTS (Huntsville Muni, TX, US)
Text:KUTS 280453Z AUTO 09003KT 10SM CLR 22/08 A3016 RMK AO2 SLP208 T02170083
Temperature: 21.7°C ( 71°F)
Dewpoint: 8.3°C ( 47°F) [RH = 42%]
Pressure (altimeter):30.16 inches Hg (1021.4 mb) [Sea level pressure: 1020.8 mb]
Winds:from the E (90 degrees) at 3 MPH (3 knots; 1.5 m/s)
Visibility:10 or more sm (16+ km)
Ceiling:at least 12,000 feet AGL
Clouds:sky clear below 12,000 feet AGL
QC Flag:automated observation with no human augmentation

METAR for:KCXO (Conroe/Executive Arp, TX, US)
Text:KCXO 280453Z AUTO 00000KT 10SM CLR 18/10 A3016 RMK AO2 SLP209 T01830100
Temperature: 18.3°C ( 65°F)
Dewpoint: 10.0°C ( 50°F) [RH = 58%]
Pressure (altimeter):30.16 inches Hg (1021.4 mb) [Sea level pressure: 1020.9 mb]
Winds:calm
Visibility:10 or more sm (16+ km)
Ceiling:at least 12,000 feet AGL
Clouds:sky clear below 12,000 feet AGL
QC Flag:automated observation with no human augmentation

METAR for:KLBX (Angleton/Texas Gulf, TX, US)
Text:KLBX 280453Z AUTO 36003KT 10SM CLR 17/14 A3012 RMK AO2 SLP197 T01670144
Temperature: 16.7°C ( 62°F)
Dewpoint: 14.4°C ( 58°F) [RH = 86%]
Pressure (altimeter):30.12 inches Hg (1020.1 mb) [Sea level pressure: 1019.7 mb]
Winds:from the N (360 degrees) at 3 MPH (3 knots; 1.5 m/s)
Visibility:10 or more sm (16+ km)
Ceiling:at least 12,000 feet AGL
Clouds:sky clear below 12,000 feet AGL
QC Flag:automated observation with no human augmentation

METAR for:KPSX (Palacios Muni, TX, US)
Text:KPSX 280453Z AUTO 01005KT 10SM CLR 19/15 A3011 RMK AO2 SLP195 T01890150
Temperature: 18.9°C ( 66°F)
Dewpoint: 15.0°C ( 59°F) [RH = 78%]
Pressure (altimeter):30.11 inches Hg (1019.7 mb) [Sea level pressure: 1019.5 mb]
Winds:from the N (10 degrees) at 6 MPH (5 knots; 2.6 m/s)
Visibility:10 or more sm (16+ km)
Ceiling:at least 12,000 feet AGL
Clouds:sky clear below 12,000 feet AGL
QC Flag:automated observation with no human augmentation